Time;durP1;ratioP1;P1;durP2;ratioP2;P2;SDS_P1;SDS_P2;PMS_P1;PMS_P2;Temp;Humidity;BMP_temperature;BMP_pressure;BME280_temperature;BME280_humidity;BME280_pressure;Samples;Min_cycle;Max_cycle;Signal;HPM_P1;HPM_P2
2023/12/26 15:22:40;;;;;;;7.00;3.53;;;;;;;7.36;100.00;92723.38;5064808;28;20386;-75
2023/12/26 15:25:06;;;;;;;7.70;4.18;;;;;;;7.29;100.00;92725.47;5064074;28;20040;-76
2023/12/26 15:27:32;;;;;;;12.35;5.07;;;;;;;7.16;100.00;92737.19;5064339;28;20040;-76
2023/12/26 15:29:57;;;;;;;12.48;4.88;;;;;;;7.08;100.00;92732.47;5065597;28;20025;-76
2023/12/26 15:32:23;;;;;;;13.68;5.30;;;;;;;6.98;100.00;92732.44;5064634;28;20488;-76
2023/12/26 15:34:48;;;;;;;9.82;4.75;;;;;;;6.87;100.00;92737.66;5065685;28;20037;-76
2023/12/26 15:37:14;;;;;;;9.32;4.13;;;;;;;6.76;100.00;92725.66;5065670;28;20485;-77
2023/12/26 15:39:40;;;;;;;10.77;4.88;;;;;;;6.67;100.00;92727.19;5063371;28;20539;-76
2023/12/26 15:42:07;;;;;;;14.23;4.72;;;;;;;6.54;100.00;92731.03;5064966;28;20033;-76
2023/12/26 15:44:33;;;;;;;12.48;4.53;;;;;;;6.42;100.00;92727.88;5063516;28;20037;-76
2023/12/26 15:46:58;;;;;;;14.95;5.60;;;;;;;6.36;100.00;92734.88;5064979;28;20032;-76
2023/12/26 15:49:24;;;;;;;14.48;6.85;;;;;;;6.35;100.00;92735.09;5065044;28;20039;-76
2023/12/26 15:51:49;;;;;;;25.60;10.82;;;;;;;6.25;100.00;92730.66;5065031;28;20555;-76
2023/12/26 15:54:16;;;;;;;19.27;7.85;;;;;;;6.11;100.00;92730.34;5065201;28;20036;-76
2023/12/26 15:56:42;;;;;;;13.65;5.90;;;;;;;6.04;100.00;92732.38;5064074;28;20090;-76
2023/12/26 15:59:07;;;;;;;10.57;4.10;;;;;;;5.99;100.00;92729.72;5065198;28;20032;-76
2023/12/26 16:01:33;;;;;;;10.82;4.53;;;;;;;5.93;100.00;92741.91;5064473;28;20033;-76
2023/12/26 16:03:59;;;;;;;11.75;3.90;;;;;;;5.88;100.00;92741.88;5063324;28;20036;-76
2023/12/26 16:06:27;;;;;;;7.50;4.05;;;;;;;5.86;100.00;92746.53;5064676;28;20036;-76
2023/12/26 16:08:55;;;;;;;11.57;4.20;;;;;;;5.84;100.00;92748.59;5064562;28;20044;-76
2023/12/26 16:11:20;;;;;;;9.63;4.47;;;;;;;5.78;100.00;92749.59;5062954;28;20386;-76
2023/12/26 16:13:46;;;;;;;10.85;3.92;;;;;;;5.70;100.00;92758.63;5064254;28;20043;-76
2023/12/26 16:16:12;;;;;;;9.90;4.55;;;;;;;5.63;100.00;92761.44;5063271;28;20695;-76
2023/12/26 16:18:41;;;;;;;13.77;5.90;;;;;;;5.58;100.00;92760.59;5063484;28;20037;-76
2023/12/26 16:21:07;;;;;;;11.30;4.68;;;;;;;5.51;100.00;92771.19;5047128;28;20120;-76
2023/12/26 16:23:33;;;;;;;11.23;4.88;;;;;;;5.51;100.00;92773.78;5064412;28;20036;-76
2023/12/26 16:26:03;;;;;;;9.40;4.13;;;;;;;5.45;100.00;92780.00;5064157;28;20028;-76
2023/12/26 16:28:29;;;;;;;7.57;4.00;;;;;;;5.37;100.00;92781.22;5063703;28;20066;-76
2023/12/26 16:30:55;;;;;;;10.98;4.80;;;;;;;5.33;100.00;92780.13;5064227;28;20087;-75
2023/12/26 16:33:21;;;;;;;12.30;4.75;;;;;;;5.25;100.00;92774.63;5053974;28;20049;-76
2023/12/26 16:35:46;;;;;;;11.10;4.68;;;;;;;5.25;100.00;92792.81;5051226;28;20524;-76
2023/12/26 16:38:12;;;;;;;9.55;4.63;;;;;;;5.20;100.00;92791.72;5051262;28;20037;-76
2023/12/26 16:40:37;;;;;;;8.30;4.93;;;;;;;5.16;100.00;92788.03;5050353;28;20036;-76
2023/12/26 16:43:03;;;;;;;11.77;4.38;;;;;;;5.12;100.00;92784.38;5051002;28;20120;-76
2023/12/26 16:45:29;;;;;;;9.95;4.20;;;;;;;5.09;100.00;92787.47;5050614;28;20064;-76
2023/12/26 16:47:55;;;;;;;11.20;4.22;;;;;;;5.11;100.00;92798.38;5050540;28;20108;-75
2023/12/26 16:50:20;;;;;;;12.18;4.50;;;;;;;5.04;100.00;92787.38;5050234;28;20043;-76
2023/12/26 16:52:46;;;;;;;11.95;4.68;;;;;;;4.98;100.00;92786.56;5049102;28;20068;-76
2023/12/26 16:55:12;;;;;;;11.93;4.90;;;;;;;4.90;100.00;92779.19;5050845;28;20060;-78
2023/12/26 16:57:55;;;;;;;7.07;4.15;;;;;;;4.94;100.00;92795.06;5054285;28;20044;-78
2023/12/26 17:00:20;;;;;;;9.10;4.15;;;;;;;4.89;100.00;92795.81;5062998;28;20094;-78
2023/12/26 17:02:46;;;;;;;8.98;4.30;;;;;;;4.84;100.00;92797.53;5062516;28;20029;-78
2023/12/26 17:05:12;;;;;;;8.95;4.18;;;;;;;4.78;100.00;92800.09;5060374;28;20515;-78
2023/12/26 17:07:41;;;;;;;7.40;4.40;;;;;;;4.73;100.00;92800.03;5061237;28;20033;-78
2023/12/26 17:10:17;;;;;;;9.65;4.85;;;;;;;4.69;100.00;92793.75;5061355;28;20059;-78
2023/12/26 17:12:43;;;;;;;14.27;5.55;;;;;;;4.63;100.00;92796.53;5061369;28;20041;-78
2023/12/26 17:15:10;;;;;;;10.00;4.75;;;;;;;4.63;100.00;92802.50;5059850;28;20093;-78
2023/12/26 17:17:40;;;;;;;8.85;4.32;;;;;;;4.59;100.00;92793.63;5060153;28;20041;-78
2023/12/26 17:20:06;;;;;;;9.18;4.00;;;;;;;4.55;100.00;92793.34;5060133;28;20033;-78
2023/12/26 17:22:32;;;;;;;8.98;4.53;;;;;;;4.53;100.00;92799.81;5061322;28;20060;-78
2023/12/26 17:25:13;;;;;;;9.60;4.65;;;;;;;4.50;100.00;92797.69;5060390;28;20408;-78
2023/12/26 17:27:41;;;;;;;;;;;;;;;4.41;100.00;92789.53;5060556;28;20040;-78
2023/12/26 17:30:11;;;;;;;10.20;4.22;;;;;;;4.44;100.00;92790.88;5058948;28;20463;-78
2023/12/26 17:32:36;;;;;;;10.90;4.47;;;;;;;4.35;100.00;92786.09;5059549;28;20132;-78
2023/12/26 17:35:04;;;;;;;12.23;4.38;;;;;;;4.34;100.00;92783.75;5059322;28;20122;-78
2023/12/26 17:37:30;;;;;;;9.73;5.10;;;;;;;4.32;100.00;92786.59;5059999;28;20115;-78
2023/12/26 17:39:57;;;;;;;9.07;4.43;;;;;;;4.31;100.00;92786.81;5059808;28;20049;-78
2023/12/26 17:42:26;;;;;;;8.43;4.55;;;;;;;4.27;100.00;92788.31;5059724;28;20666;-78
2023/12/26 17:44:51;;;;;;;10.43;4.75;;;;;;;4.27;100.00;92788.31;5057226;28;20043;-78
2023/12/26 17:47:17;;;;;;;11.23;4.75;;;;;;;4.26;100.00;92787.53;5055965;28;20025;-78
2023/12/26 17:49:42;;;;;;;15.60;5.18;;;;;;;4.26;100.00;92792.72;5058251;28;20033;-77
2023/12/26 17:52:08;;;;;;;8.50;4.95;;;;;;;4.27;100.00;92796.88;5040707;28;20078;-78
2023/12/26 17:54:33;;;;;;;9.45;4.70;;;;;;;4.25;100.00;92803.31;5042986;28;20046;-76
2023/12/26 17:56:59;;;;;;;13.55;4.65;;;;;;;4.21;100.00;92799.63;5047332;28;20036;-78
2023/12/26 17:59:24;;;;;;;11.30;4.57;;;;;;;4.20;100.00;92805.84;5040235;28;20053;-78
2023/12/26 18:01:50;;;;;;;14.13;6.70;;;;;;;4.16;100.00;92810.72;5053513;28;20532;-78
2023/12/26 18:04:16;;;;;;;12.52;6.72;;;;;;;4.10;100.00;92825.41;5057378;28;20428;-79
2023/12/26 18:06:41;;;;;;;13.38;5.80;;;;;;;4.07;100.00;92815.50;5052685;28;20063;-78
2023/12/26 18:09:07;;;;;;;15.35;5.57;;;;;;;4.03;100.00;92813.63;5047416;28;20089;-78
2023/12/26 18:11:33;;;;;;;12.20;5.88;;;;;;;4.06;100.00;92826.13;5036390;28;20060;-77
2023/12/26 18:13:58;;;;;;;13.23;5.70;;;;;;;4.05;100.00;92833.09;5054776;28;20070;-78
2023/12/26 18:16:24;;;;;;;11.55;5.63;;;;;;;4.02;100.00;92833.59;5048138;28;20064;-79
2023/12/26 18:18:49;;;;;;;13.13;5.70;;;;;;;4.02;100.00;92825.03;5044861;28;20053;-79
2023/12/26 18:21:15;;;;;;;11.57;5.18;;;;;;;3.99;100.00;92828.09;5036266;28;20042;-79
2023/12/26 18:23:41;;;;;;;11.75;5.40;;;;;;;3.96;100.00;92830.16;5028525;28;20045;-79
2023/12/26 18:26:07;;;;;;;13.75;5.47;;;;;;;3.94;100.00;92832.19;5053821;28;20068;-78
2023/12/26 18:28:32;;;;;;;12.35;5.63;;;;;;;3.92;100.00;92830.84;5045843;28;20400;-78
2023/12/26 18:30:58;;;;;;;9.80;5.15;;;;;;;3.92;100.00;92842.00;5045329;28;20049;-78
2023/12/26 18:33:23;;;;;;;12.48;7.07;;;;;;;3.93;100.00;92840.97;5055221;28;20071;-78
2023/12/26 18:35:49;;;;;;;13.35;7.78;;;;;;;3.89;100.00;92834.69;5038020;28;20093;-77
2023/12/26 18:38:15;;;;;;;11.15;6.18;;;;;;;3.85;100.00;92823.25;5044169;28;20382;-78
2023/12/26 18:40:43;;;;;;;26.00;6.65;;;;;;;3.83;100.00;92825.28;5057323;28;20091;-78
2023/12/26 18:43:10;;;;;;;20.13;10.00;;;;;;;3.85;100.00;92833.59;5044767;28;20036;-77
2023/12/26 18:45:35;;;;;;;17.63;8.57;;;;;;;3.82;100.00;92838.47;5051006;28;20037;-77
2023/12/26 18:48:01;;;;;;;18.02;6.75;;;;;;;3.80;100.00;92843.09;5041823;28;20068;-79
2023/12/26 18:50:27;;;;;;;21.65;9.45;;;;;;;3.77;100.00;92840.97;5055284;28;20037;-78
2023/12/26 18:52:52;;;;;;;31.75;13.40;;;;;;;3.74;100.00;92837.06;5044130;28;20079;-78
2023/12/26 18:55:18;;;;;;;22.15;11.98;;;;;;;3.74;100.00;92837.84;5036455;28;20046;-78
2023/12/26 18:57:43;;;;;;;20.25;11.15;;;;;;;3.76;100.00;92845.38;5037563;28;20554;-79
2023/12/26 19:00:10;;;;;;;18.27;9.05;;;;;;;3.73;100.00;92845.81;5038231;28;20435;-79
2023/12/26 19:02:36;;;;;;;20.92;9.43;;;;;;;3.72;100.00;92839.09;5058324;28;20024;-79
2023/12/26 19:05:01;;;;;;;16.25;8.68;;;;;;;3.70;100.00;92835.94;5058283;28;20045;-79
2023/12/26 19:07:28;;;;;;;20.27;11.80;;;;;;;3.68;100.00;92838.75;5052829;28;20117;-80
2023/12/26 19:09:54;;;;;;;30.30;16.83;;;;;;;3.67;100.00;92836.41;5019960;28;20041;-80
2023/12/26 19:12:20;;;;;;;26.80;13.10;;;;;;;3.66;100.00;92845.97;5047401;28;20419;-79
2023/12/26 19:14:45;;;;;;;23.08;12.63;;;;;;;3.66;100.00;92845.19;5056742;28;20041;-79
2023/12/26 19:17:13;;;;;;;22.90;10.57;;;;;;;3.63;100.00;92856.81;5058256;28;20025;-79
2023/12/26 19:19:39;;;;;;;24.90;12.52;;;;;;;3.64;100.00;92860.19;5041595;28;20036;-79
2023/12/26 19:22:05;;;;;;;23.55;11.27;;;;;;;3.61;100.00;92852.91;5039450;28;20060;-79
2023/12/26 19:24:30;;;;;;;22.15;10.32;;;;;;;3.59;100.00;92855.72;5037995;28;20129;-78
2023/12/26 19:26:57;;;;;;;25.73;13.35;;;;;;;3.58;100.00;92855.94;5037487;28;20512;-79
2023/12/26 19:29:22;;;;;;;23.80;12.05;;;;;;;3.59;100.00;92860.88;5054755;28;20037;-79
2023/12/26 19:31:48;;;;;;;17.75;9.93;;;;;;;3.59;100.00;92867.88;5057983;28;20026;-79
2023/12/26 19:34:14;;;;;;;21.05;9.55;;;;;;;3.52;100.00;92853.25;5056326;28;20551;-79
2023/12/26 19:36:39;;;;;;;16.23;8.02;;;;;;;3.54;100.00;92853.03;5056039;28;20045;-79
2023/12/26 19:39:05;;;;;;;11.52;6.72;;;;;;;3.53;100.00;92851.44;5057726;28;20025;-80
2023/12/26 19:41:31;;;;;;;11.75;5.93;;;;;;;3.51;100.00;92858.66;5058421;28;20365;-79
2023/12/26 19:43:56;;;;;;;15.80;6.70;;;;;;;3.49;100.00;92856.31;5057120;28;20037;-80
2023/12/26 19:46:22;;;;;;;12.13;6.68;;;;;;;3.47;100.00;92853.19;5057108;28;20025;-78
2023/12/26 19:48:48;;;;;;;14.85;9.07;;;;;;;3.42;100.00;92849.72;5052479;28;20061;-79
2023/12/26 19:51:14;;;;;;;14.27;10.55;;;;;;;3.43;100.00;92846.91;5037099;28;20084;-79
2023/12/26 19:53:39;;;;;;;17.75;10.32;;;;;;;3.42;100.00;92853.06;5042650;28;20352;-79
2023/12/26 19:56:05;;;;;;;14.38;7.22;;;;;;;3.39;100.00;92856.16;5057602;28;20040;-79
2023/12/26 19:58:31;;;;;;;11.40;6.25;;;;;;;3.41;100.00;92863.69;5056937;28;20041;-79
2023/12/26 20:00:57;;;;;;;11.30;6.18;;;;;;;3.40;100.00;92857.72;5056844;28;20025;-79
2023/12/26 20:03:22;;;;;;;9.88;5.20;;;;;;;3.40;100.00;92859.50;5055256;28;20041;-80
2023/12/26 20:05:49;;;;;;;14.77;5.80;;;;;;;3.42;100.00;92866.03;5038656;28;20559;-78
2023/12/26 20:08:14;;;;;;;12.18;5.93;;;;;;;3.39;100.00;92865.72;5039593;28;20037;-79
2023/12/26 20:10:40;;;;;;;19.77;8.88;;;;;;;3.36;100.00;92882.50;5041168;28;20343;-78
2023/12/26 20:13:06;;;;;;;16.40;9.70;;;;;;;3.34;100.00;92889.69;5046375;28;20044;-79
2023/12/26 20:15:32;;;;;;;16.63;9.02;;;;;;;3.30;100.00;92891.94;5045662;28;20045;-77
2023/12/26 20:17:59;;;;;;;18.45;7.63;;;;;;;3.27;100.00;92902.00;5046069;28;20041;-79
2023/12/26 20:20:25;;;;;;;14.27;6.55;;;;;;;3.28;100.00;92895.78;5053531;28;20413;-79
2023/12/26 20:22:50;;;;;;;12.63;5.75;;;;;;;3.25;100.00;92898.84;5041838;28;20059;-78
2023/12/26 20:25:16;;;;;;;12.75;5.53;;;;;;;3.23;100.00;92900.88;5055102;28;20063;-79
2023/12/26 20:27:41;;;;;;;11.95;5.32;;;;;;;3.22;100.00;92901.88;5062403;28;20083;-78
2023/12/26 20:30:10;;;;;;;11.60;5.07;;;;;;;3.19;100.00;92903.13;5046101;28;20067;-79
2023/12/26 20:32:36;;;;;;;10.45;5.45;;;;;;;3.17;100.00;92901.78;5080952;28;20020;-78
2023/12/26 20:35:03;;;;;;;9.23;5.10;;;;;;;3.15;100.00;92896.06;5073361;28;20059;-78
2023/12/26 20:37:29;;;;;;;13.35;5.53;;;;;;;3.13;100.00;92898.91;5064604;28;20045;-79
2023/12/26 20:39:58;;;;;;;12.35;5.68;;;;;;;3.12;100.00;92897.31;5063369;28;20120;-79
2023/12/26 20:42:24;;;;;;;9.57;5.03;;;;;;;3.10;100.00;92900.13;5064964;28;20115;-79
2023/12/26 20:44:53;;;;;;;10.75;5.78;;;;;;;3.09;100.00;92895.97;5065388;28;20037;-79
2023/12/26 20:47:18;;;;;;;12.77;4.90;;;;;;;3.07;100.00;92899.81;5064126;28;20055;-79
2023/12/26 20:49:44;;;;;;;16.88;5.13;;;;;;;3.03;100.00;92904.63;5065447;28;20033;-79
2023/12/26 20:52:11;;;;;;;14.10;5.40;;;;;;;3.01;100.00;92908.47;5064204;28;20033;-79
2023/12/26 20:54:38;;;;;;;15.27;5.93;;;;;;;3.01;100.00;92901.50;5063603;28;20094;-79
2023/12/26 20:57:04;;;;;;;11.40;5.57;;;;;;;3.00;100.00;92899.94;5063811;28;20037;-79
2023/12/26 20:59:31;;;;;;;12.43;4.88;;;;;;;2.99;100.00;92903.53;5064366;28;20048;-78
2023/12/26 21:01:57;;;;;;;10.73;5.13;;;;;;;2.99;100.00;92908.69;5064001;28;20476;-78
2023/12/26 21:04:27;;;;;;;12.05;5.30;;;;;;;2.96;100.00;92904.00;5065250;28;20057;-78
2023/12/26 21:06:53;;;;;;;14.43;5.75;;;;;;;2.95;100.00;92917.94;5065288;28;20040;-78
2023/12/26 21:09:52;;;;;;;12.32;5.50;;;;;;;2.90;100.00;92910.06;5065793;28;20672;-79
2023/12/26 21:12:18;;;;;;;12.80;5.50;;;;;;;2.87;100.00;92913.13;5065691;28;20044;-78
2023/12/26 21:14:47;;;;;;;14.55;5.90;;;;;;;2.88;100.00;92912.09;5064325;28;20029;-79
2023/12/26 21:17:12;;;;;;;13.27;6.35;;;;;;;2.87;100.00;92913.13;5064930;28;20064;-78
2023/12/26 21:19:39;;;;;;;11.98;5.95;;;;;;;2.87;100.00;92918.28;5046364;28;20044;-78
2023/12/26 21:22:37;;;;;;;12.43;6.05;;;;;;;2.87;100.00;92913.13;5060697;28;20052;-79
2023/12/26 21:25:06;;;;;;;9.23;5.50;;;;;;;2.85;100.00;92913.34;5064059;28;20117;-78
2023/12/26 21:27:40;;;;;;;14.85;7.28;;;;;;;2.84;100.00;92918.75;5063263;28;20060;-78
2023/12/26 21:30:06;;;;;;;21.13;13.15;;;;;;;2.84;100.00;92924.72;5061777;28;20380;-78
2023/12/26 21:32:33;;;;;;;21.33;10.10;;;;;;;2.79;100.00;92918.63;5062356;28;20037;-78
2023/12/26 21:35:17;;;;;;;15.40;8.20;;;;;;;2.82;100.00;92933.72;5063033;28;20045;-78
2023/12/26 21:37:42;;;;;;;10.73;5.60;;;;;;;2.80;100.00;92928.75;5062087;28;20048;-78
2023/12/26 21:40:08;;;;;;;10.43;5.38;;;;;;;2.82;100.00;92936.28;5062186;28;20033;-78
2023/12/26 21:42:39;;;;;;;11.80;5.63;;;;;;;2.83;100.00;92936.06;5063172;28;20400;-78
2023/12/26 21:45:06;;;;;;;11.57;5.97;;;;;;;2.80;100.00;92935.72;5061449;28;20480;-78
2023/12/26 21:47:39;;;;;;;15.00;5.82;;;;;;;2.80;100.00;92930.56;5063577;28;20065;-78
2023/12/26 21:50:06;;;;;;;11.25;5.35;;;;;;;2.79;100.00;92934.16;5062660;28;20048;-78
2023/12/26 21:52:42;;;;;;;7.32;4.88;;;;;;;2.66;100.00;92923.03;5064239;28;20047;-78
2023/12/26 21:55:07;;;;;;;14.43;5.95;;;;;;;2.79;100.00;92947.06;5064038;28;20072;-78
2023/12/26 21:58:12;;;;;;;12.38;5.93;;;;;;;2.79;100.00;92958.22;5063999;28;20064;-78
2023/12/26 22:00:37;;;;;;;11.45;5.50;;;;;;;2.76;100.00;92957.88;5063409;28;20036;-78
2023/12/26 22:03:03;;;;;;;11.60;5.07;;;;;;;2.74;100.00;92957.31;5063988;28;20021;-78
2023/12/26 22:09:01;;;;;;;9.65;5.30;;;;;;;2.73;100.00;92966.09;5061606;28;20067;-78
2023/12/26 22:11:27;;;;;;;11.13;5.32;;;;;;;2.74;100.00;92975.41;5062833;28;20037;-78
